Terminal Aerodrome Forecast
Issued by NWS Sterling, VA

Current Version | Previous Version | Text Only | Print | Product List | Glossary Off
Versions: 1 2 3 4 5 6 7 8 9 10 11 12 13 14 15 16 17 18 19 20 21 22 23 24

000
FTUS41 KLWX 181700
TAFIAD
TAF
KIAD 181733Z 1818/1924 16005KT P6SM BKN050
     FM190300 VRB03KT P6SM BKN015 OVC050
     FM190600 06004KT P6SM OVC008
     FM191400 06006KT P6SM BKN015 BKN050
     FM191800 07008KT P6SM BKN050=

USA.gov is the U.S. government's official web portal to all federal, state and local government web resources and services.